Featured Flight

MET2089 - Boston to Chicago

Embraer ERJ-170LR
N912AH
2 hrs 00 mins
752 nm
Scheduled - Daily

Bid/PiRep Status

Bid was submitted on Jan 05 2017.

PiRep # 74611: Approved by Sean Doyle on January 6th, 2017 3:52 UTC

Departure

Departing from
Boston (BOS)
Departure gate
Scheduled Departure
GMT 1530
Local 1030
METAR KBOS 170154Z 24011KT 10SM SCT130 BKN210 02/M07 A3025 RMK AO2 SLP241 T00221072 $
TAF KBOS 162341Z 1700/1806 24010KT P6SM BKN250 FM171100 29004KT P6SM FEW250 FM171400 35004KT P6SM SCT250 FM171700 05005KT P6SM BKN200 FM172300 10006KT P6SM -RA OVC030 FM180100 11007KT 3SM -RASN OVC010
  • No charts available

Arrival

Arriving at
Chicago (ORD)
Arrival gate
Scheduled Arrival
GMT 1730
Local 1130
METAR KORD 170210Z VRB04KT 5SM -RA BR OVC004 03/02 A2996 RMK AO2 P0001 T00280022
TAF KORD 162332Z 1700/1806 08006KT 3SM -SHRA BR OVC005 FM170100 10009KT 1SM SHRA BR OVC003 TEMPO 1702/1704 09012KT 1/2SM TSRA FG OVC003CB FM170600 VRB03KT 3/4SM -RADZ BR OVC003 TEMPO 1706/1710 1/2SM FG FM171300 24010KT 2SM -DZ BR OVC003 FM172000 27008KT 4SM B

Route Map

Planning Resources

KBWI J518 J82 KORD
TERPZ2 BUFFR OXI4 BSV MOBLE HIMGO NOLEN KEWDE VULCN CASEN RIDGE PALIE JOGBO FIX 21
BUFFR IHD53 IHD AVERE LIVER DJB MAYZE ASHEN GSH HOBAR
BAL J518 DJB
TERPZ6.MCRAY J518 AVERE J152 TRAKK J30 FWA25 WATSN2.FWA
Route:
OFP Layout:
Units:
Detailed Navlog:
ETOPS Planning:
Plan Stepclimbs:
Runway Analysis:
Include NOTAMS:
FIR NOTAMS:
Flight Maps:

Return Flights

MET126
Boeing 777-300ER
0300 GMT
MET688
Airbus A319-131
0430 GMT
MET2080
Embraer ERJ-170LR
1200 GMT
MET2082
Embraer ERJ-170LR
1700 GMT
MET2084
Embraer ERJ-170LR
2200 GMT
MET2086
Embraer ERJ-170LR
0300 GMT
MET2088
Embraer ERJ-170LR
1300 GMT
MET2090
Embraer ERJ-170LR
1800 GMT
MET2092
Embraer ERJ-170LR
2300 GMT
MET2094
Embraer ERJ-170LR
0400 GMT
MET2096
Embraer ERJ-170LR
1400 GMT
MET2098
Embraer ERJ-170LR
1900 GMT
MET3000
Embraer ERJ-170LR
0000 GMT
MET3002
Embraer ERJ-170LR
0500 GMT
MET3004
Embraer ERJ-170LR
1500 GMT
MET3006
Embraer ERJ-170LR
2000 GMT
MET3008
Embraer ERJ-170LR
0100 GMT
MET3010
Embraer ERJ-170LR
1600 GMT
MET3012
Embraer ERJ-170LR
2100 GMT
MET3014
Embraer ERJ-170LR
0200 GMT

Popularity

Hub Current Bids PiReps this month Total PiReps
KMCI 0 0 0
KLAX 0 0 0
KBOS 0 1 1